Minerva Libra — SVAA7 — position and weather

sailwx.info

Track history (hours):
 
Tides and Currents Weather Stations Pressure Air Temp Water Temp Dewpoint Dewpoint Depression Visibility Wind Speed Wind Dir Waves Ship Positions

Minerva Libra

Last reported at 2015-Feb-27 08:08 UTC. Time now 2015-Feb-27 13:09 UTC.
Position N 60°04' E 027°22'.

Length 250 m; draft 8 m.

Type: Tanker. MMSI: 240766000.

Date/timePositionNaut miles runAvg speedWind from/ knotsBaromVisibWave heightAir tempDewpointWater temp
2015-Feb-27 08:08N 60°04' E 027°22'9 8.9
2015-Feb-27 07:05N 60°01' E 027°04'0 0.1
2015-Feb-27 06:32N 60°01' E 027°03'0 0.1
2015-Feb-27 05:05N 60°01' E 027°04'0 0.0
2015-Feb-27 00:32N 60°01' E 027°04'0 0.0
2015-Feb-26 23:32N 60°01' E 027°04'0 0.0
2015-Feb-26 21:32N 60°01' E 027°04'0 0.1
2015-Feb-26 20:14N 60°01' E 027°03'0 0.2
2015-Feb-26 19:32N 60°01' E 027°04'4 4.0
2015-Feb-26 18:27N 59°59' E 026°56'1011.1
2015-Feb-26 17:33N 59°59' E 026°36'9 9.3
2015-Feb-26 16:32N 59°56' E 026°18'10 9.3
2015-Feb-26 15:31N 59°54' E 025°60'9 9.3
2015-Feb-26 14:31N 59°51' E 025°42'22 9.4
2015-Feb-26 12:11N 59°47' E 024°59'8 9.1
2015-Feb-26 11:21N 59°46' E 024°45'8 9.2
2015-Feb-26 10:32N 59°44' E 024°30'29 9.7
2015-Feb-26 07:33N 59°35' E 023°35'10 9.6
2015-Feb-26 06:32N 59°32' E 023°17'293 9.1
2015-Feb-24 22:16N 55°52' E 017°17'66 9.8
2015-Feb-24 15:33N 55°36' E 015°24'10 9.9
2015-Feb-24 14:33N 55°31' E 015°08'10 9.8
2015-Feb-24 13:33N 55°27' E 014°53'10 9.9
2015-Feb-24 12:33N 55°22' E 014°38'10 9.6
2015-Feb-24 11:33N 55°15' E 014°26'9 9.1
2015-Feb-24 10:33N 55°10' E 014°14'1010.4
2015-Feb-24 09:33N 55°09' E 013°55'9 9.2
2015-Feb-24 08:33N 55°10' E 013°39'11 9.4
2015-Feb-24 07:20N 55°12' E 013°19'8 9.7
2015-Feb-24 06:33N 55°13' E 013°06'9 9.4
2015-Feb-24 05:33N 55°15' E 012°50'8 8.5
2015-Feb-24 04:33N 55°20' E 012°38'9 9.0
2015-Feb-24 03:33N 55°29' E 012°41'8 7.5
2015-Feb-24 02:33N 55°36' E 012°42'1111.2
2015-Feb-24 01:33N 55°47' E 012°42'1313.4
2015-Feb-24 00:34N 56°01' E 012°38'10 9.8
2015-Feb-23 23:33N 56°09' E 012°27'1010.0
2015-Feb-23 22:34N 56°14' E 012°12'1010.4
2015-Feb-23 21:33N 56°23' E 012°01'1111.0
2015-Feb-23 20:33N 56°33' E 011°57'1111.2
2015-Feb-23 19:34N 56°44' E 011°52'1211.7
2015-Feb-23 18:33N 56°55' E 011°45'1111.1
2015-Feb-23 17:33N 57°06' E 011°38'1111.0
2015-Feb-23 16:33N 57°16' E 011°32'1111.0
2015-Feb-23 15:34N 57°26' E 011°25'1110.6
2015-Feb-23 14:34N 57°34' E 011°11'1111.1
2015-Feb-23 13:34N 57°42' E 010°56'1111.4
2015-Feb-23 12:33N 57°48' E 010°38'28110.7
2015-Feb-22 10:23N 54°17' E 005°05'1011.6
2015-Feb-22 09:29N 54°08' E 004°56'1111.8
2015-Feb-22 08:33N 53°59' E 004°44'11610.3
2015-Feb-21 21:16N 52°12' E 003°30'7 9.6
2015-Feb-21 20:31N 52°07' E 003°38'1010.9
2015-Feb-21 19:34N 52°03' E 003°54'10 9.6
2015-Feb-21 18:33N 51°58' E 004°07'5 4.8
2015-Feb-21 17:33N 51°55' E 004°13'0 0.1
2015-Feb-21 16:32N 51°55' E 004°13'0 0.0
2015-Feb-21 15:32N 51°55' E 004°13'0 0.0
2015-Feb-21 14:32N 51°55' E 004°13'0 0.0
2015-Feb-21 13:32N 51°55' E 004°13'0 0.0
2015-Feb-21 12:32N 51°55' E 004°13'0 0.0
2015-Feb-21 11:32N 51°55' E 004°13'0 0.0
2015-Feb-21 10:32N 51°55' E 004°13'0 0.0
2015-Feb-21 09:32N 51°55' E 004°13'0 0.0
2015-Feb-21 08:32N 51°55' E 004°13'0 0.0
2015-Feb-21 07:32N 51°55' E 004°13'0 0.0
2015-Feb-21 06:32N 51°55' E 004°13'0 0.0
2015-Feb-21 05:29N 51°55' E 004°13'0 0.0
2015-Feb-21 04:32N 51°55' E 004°13'0 0.0
2015-Feb-21 03:32N 51°55' E 004°13'0 0.0
2015-Feb-21 02:32N 51°55' E 004°13'0 0.0
2015-Feb-21 01:32N 51°55' E 004°13'0 0.0
2015-Feb-21 00:32N 51°55' E 004°13'0 0.0
2015-Feb-20 23:29N 51°55' E 004°13'0 0.0
2015-Feb-20 22:29N 51°55' E 004°13'0 0.0
2015-Feb-20 21:32N 51°55' E 004°13'0 0.0
2015-Feb-20 20:32N 51°55' E 004°13'0 0.0
2015-Feb-20 19:32N 51°55' E 004°13'0 0.0
2015-Feb-20 18:32N 51°55' E 004°13'0 0.0
2015-Feb-20 17:32N 51°55' E 004°13'0 0.0
2015-Feb-20 16:32N 51°55' E 004°13'0 0.0
2015-Feb-20 15:32N 51°55' E 004°13'0 0.5
2015-Feb-20 14:34N 51°55' E 004°12'5 5.0
2015-Feb-20 13:33N 51°58' E 004°05'4 3.5
2015-Feb-20 12:31N 51°58' E 003°59'0 0.0
2015-Feb-20 11:31N 51°58' E 003°59'0 0.0
2015-Feb-20 10:31N 51°58' E 003°59'0 0.0
2015-Feb-20 09:31N 51°58' E 003°59'0 0.0
2015-Feb-20 08:31N 51°58' E 003°59'0 0.0
2015-Feb-20 07:31N 51°58' E 003°59'0 0.0
2015-Feb-20 06:31N 51°58' E 003°59'0 0.0
2015-Feb-20 05:31N 51°58' E 003°59'0 0.0
2015-Feb-20 04:31N 51°58' E 003°59'0 0.0
2015-Feb-20 03:32N 51°58' E 003°59'0 0.0
2015-Feb-20 02:31N 51°58' E 003°59'0 0.0
2015-Feb-20 01:31N 51°58' E 003°59'0 0.0
2015-Feb-20 00:31N 51°58' E 003°59'0 0.0
2015-Feb-19 23:31N 51°58' E 003°59'0 0.0
2015-Feb-19 22:31N 51°58' E 003°59'0 0.0
2015-Feb-19 21:31N 51°58' E 003°59'0 0.0
2015-Feb-19 20:31N 51°58' E 003°59'0 0.0
2015-Feb-19 19:31N 51°58' E 003°59'0 0.0
2015-Feb-19 18:28N 51°58' E 003°59'0 0.0
2015-Feb-19 17:31N 51°58' E 003°59'0 0.0
2015-Feb-19 16:31N 51°58' E 003°59'0 0.0
2015-Feb-19 15:31N 51°58' E 003°59'0 0.0
2015-Feb-19 14:31N 51°58' E 003°59'0 0.0
2015-Feb-19 13:31N 51°58' E 003°59'0 0.0
2015-Feb-19 12:31N 51°58' E 003°59'0 0.0
2015-Feb-19 11:31N 51°58' E 003°59'0 0.0
2015-Feb-19 10:31N 51°58' E 003°59'0 0.0
2015-Feb-19 09:31N 51°58' E 003°59'0 0.0
2015-Feb-19 08:25N 51°58' E 003°59'0 0.0
2015-Feb-19 07:31N 51°58' E 003°59'0 0.0
2015-Feb-19 06:31N 51°58' E 003°59'0 0.0
2015-Feb-19 05:28N 51°58' E 003°59'0 0.0
2015-Feb-19 04:31N 51°58' E 003°59'0 0.0
2015-Feb-19 03:31N 51°58' E 003°59'0 0.0
2015-Feb-19 02:31N 51°58' E 003°59'0 0.0
2015-Feb-19 01:31N 51°58' E 003°59'0 0.0
2015-Feb-19 00:31N 51°58' E 003°59'0 0.0
2015-Feb-18 23:31N 51°58' E 003°59'0 0.0
2015-Feb-18 22:31N 51°58' E 003°59'0 0.0
2015-Feb-18 21:31N 51°58' E 003°59'0 0.0
2015-Feb-18 20:28N 51°58' E 003°59'0 0.0
2015-Feb-18 19:28N 51°58' E 003°59'0 0.0
2015-Feb-18 18:31N 51°58' E 003°59'0 0.0
2015-Feb-18 17:31N 51°58' E 003°59'0 0.0
2015-Feb-18 16:31N 51°58' E 003°59'0 0.0
2015-Feb-18 15:31N 51°58' E 003°59'0 0.0
2015-Feb-18 14:31N 51°58' E 003°59'0 0.0
2015-Feb-18 13:31N 51°58' E 003°59'0 0.0
2015-Feb-18 12:31N 51°58' E 003°59'0 0.0
2015-Feb-18 11:31N 51°58' E 003°59'0 0.0
2015-Feb-18 10:31N 51°58' E 003°59'0 0.0
2015-Feb-18 09:31N 51°58' E 003°59'0 0.0
2015-Feb-18 08:31N 51°58' E 003°59'0 0.0
2015-Feb-18 07:31N 51°58' E 003°59'0 0.0
2015-Feb-18 06:31N 51°58' E 003°59'0 0.0
2015-Feb-18 05:31N 51°58' E 003°59'0 0.0
2015-Feb-18 04:31N 51°58' E 003°59'0 0.0
2015-Feb-18 03:31N 51°58' E 003°59'0 0.0
2015-Feb-18 02:31N 51°58' E 003°59'0 0.0
2015-Feb-18 01:31N 51°58' E 003°59'0 0.0
2015-Feb-18 00:31N 51°58' E 003°59'0 0.0
2015-Feb-17 23:31N 51°58' E 003°59'0 0.0
2015-Feb-17 22:31N 51°58' E 003°59'0 0.0
2015-Feb-17 21:31N 51°58' E 003°59'0 0.0
2015-Feb-17 20:31N 51°58' E 003°59'0 0.0
2015-Feb-17 19:31N 51°58' E 003°59'0 0.0
2015-Feb-17 17:28N 51°58' E 003°59'0 0.0
2015-Feb-17 16:28N 51°58' E 003°59'0 0.0
2015-Feb-17 15:31N 51°58' E 003°59'0 0.0
2015-Feb-17 14:31N 51°58' E 003°59'0 0.0
2015-Feb-17 13:28N 51°58' E 003°59'0 0.0
2015-Feb-17 12:16N 51°58' E 003°59'0 0.0
2015-Feb-17 11:31N 51°58' E 003°59'0 0.0
2015-Feb-17 10:16N 51°58' E 003°59'0 0.0
2015-Feb-17 09:16N 51°58' E 003°59'0 0.0
2015-Feb-17 08:31N 51°58' E 003°59'  
Track history (hours):
 
Tides and Currents Weather Stations Pressure Air Temp Water Temp Dewpoint Dewpoint Depression Visibility Wind Speed Wind Dir Waves Ship Positions

Minerva Libra

Last reported at 2015-Feb-27 08:08 UTC. Time now 2015-Feb-27 13:09 UTC.
Position N 60°04' E 027°22'.

Length 250 m; draft 8 m.

Type: Tanker. MMSI: 240766000.

Date/timePositionNaut miles runAvg speedWind from/ knotsBaromVisibWave heightAir tempDewpointWater temp
2015-Feb-27 08:08N 60°04' E 027°22'9 8.9
2015-Feb-27 07:05N 60°01' E 027°04'0 0.1
2015-Feb-27 06:32N 60°01' E 027°03'0 0.1
2015-Feb-27 05:05N 60°01' E 027°04'0 0.0
2015-Feb-27 00:32N 60°01' E 027°04'0 0.0
2015-Feb-26 23:32N 60°01' E 027°04'0 0.0
2015-Feb-26 21:32N 60°01' E 027°04'0 0.1
2015-Feb-26 20:14N 60°01' E 027°03'0 0.2
2015-Feb-26 19:32N 60°01' E 027°04'4 4.0
2015-Feb-26 18:27N 59°59' E 026°56'1011.1
2015-Feb-26 17:33N 59°59' E 026°36'9 9.3
2015-Feb-26 16:32N 59°56' E 026°18'10 9.3
2015-Feb-26 15:31N 59°54' E 025°60'9 9.3
2015-Feb-26 14:31N 59°51' E 025°42'22 9.4
2015-Feb-26 12:11N 59°47' E 024°59'8 9.1
2015-Feb-26 11:21N 59°46' E 024°45'8 9.2
2015-Feb-26 10:32N 59°44' E 024°30'29 9.7
2015-Feb-26 07:33N 59°35' E 023°35'10 9.6
2015-Feb-26 06:32N 59°32' E 023°17'293 9.1
2015-Feb-24 22:16N 55°52' E 017°17'66 9.8
2015-Feb-24 15:33N 55°36' E 015°24'10 9.9
2015-Feb-24 14:33N 55°31' E 015°08'10 9.8
2015-Feb-24 13:33N 55°27' E 014°53'10 9.9
2015-Feb-24 12:33N 55°22' E 014°38'10 9.6
2015-Feb-24 11:33N 55°15' E 014°26'9 9.1
2015-Feb-24 10:33N 55°10' E 014°14'1010.4
2015-Feb-24 09:33N 55°09' E 013°55'9 9.2
2015-Feb-24 08:33N 55°10' E 013°39'11 9.4
2015-Feb-24 07:20N 55°12' E 013°19'8 9.7
2015-Feb-24 06:33N 55°13' E 013°06'9 9.4
2015-Feb-24 05:33N 55°15' E 012°50'8 8.5
2015-Feb-24 04:33N 55°20' E 012°38'9 9.0
2015-Feb-24 03:33N 55°29' E 012°41'8 7.5
2015-Feb-24 02:33N 55°36' E 012°42'1111.2
2015-Feb-24 01:33N 55°47' E 012°42'1313.4
2015-Feb-24 00:34N 56°01' E 012°38'10 9.8
2015-Feb-23 23:33N 56°09' E 012°27'1010.0
2015-Feb-23 22:34N 56°14' E 012°12'1010.4
2015-Feb-23 21:33N 56°23' E 012°01'1111.0
2015-Feb-23 20:33N 56°33' E 011°57'1111.2
2015-Feb-23 19:34N 56°44' E 011°52'1211.7
2015-Feb-23 18:33N 56°55' E 011°45'1111.1
2015-Feb-23 17:33N 57°06' E 011°38'1111.0
2015-Feb-23 16:33N 57°16' E 011°32'1111.0
2015-Feb-23 15:34N 57°26' E 011°25'1110.6
2015-Feb-23 14:34N 57°34' E 011°11'1111.1
2015-Feb-23 13:34N 57°42' E 010°56'1111.4
2015-Feb-23 12:33N 57°48' E 010°38'28110.7
2015-Feb-22 10:23N 54°17' E 005°05'1011.6
2015-Feb-22 09:29N 54°08' E 004°56'1111.8
2015-Feb-22 08:33N 53°59' E 004°44'11610.3
2015-Feb-21 21:16N 52°12' E 003°30'7 9.6
2015-Feb-21 20:31N 52°07' E 003°38'1010.9
2015-Feb-21 19:34N 52°03' E 003°54'10 9.6
2015-Feb-21 18:33N 51°58' E 004°07'5 4.8
2015-Feb-21 17:33N 51°55' E 004°13'0 0.1
2015-Feb-21 16:32N 51°55' E 004°13'0 0.0
2015-Feb-21 15:32N 51°55' E 004°13'0 0.0
2015-Feb-21 14:32N 51°55' E 004°13'0 0.0
2015-Feb-21 13:32N 51°55' E 004°13'0 0.0
2015-Feb-21 12:32N 51°55' E 004°13'0 0.0
2015-Feb-21 11:32N 51°55' E 004°13'0 0.0
2015-Feb-21 10:32N 51°55' E 004°13'0 0.0
2015-Feb-21 09:32N 51°55' E 004°13'0 0.0
2015-Feb-21 08:32N 51°55' E 004°13'0 0.0
2015-Feb-21 07:32N 51°55' E 004°13'0 0.0
2015-Feb-21 06:32N 51°55' E 004°13'0 0.0
2015-Feb-21 05:29N 51°55' E 004°13'0 0.0
2015-Feb-21 04:32N 51°55' E 004°13'0 0.0
2015-Feb-21 03:32N 51°55' E 004°13'0 0.0
2015-Feb-21 02:32N 51°55' E 004°13'0 0.0
2015-Feb-21 01:32N 51°55' E 004°13'0 0.0
2015-Feb-21 00:32N 51°55' E 004°13'0 0.0
2015-Feb-20 23:29N 51°55' E 004°13'0 0.0
2015-Feb-20 22:29N 51°55' E 004°13'0 0.0
2015-Feb-20 21:32N 51°55' E 004°13'0 0.0
2015-Feb-20 20:32N 51°55' E 004°13'0 0.0
2015-Feb-20 19:32N 51°55' E 004°13'0 0.0
2015-Feb-20 18:32N 51°55' E 004°13'0 0.0
2015-Feb-20 17:32N 51°55' E 004°13'0 0.0
2015-Feb-20 16:32N 51°55' E 004°13'0 0.0
2015-Feb-20 15:32N 51°55' E 004°13'0 0.5
2015-Feb-20 14:34N 51°55' E 004°12'5 5.0
2015-Feb-20 13:33N 51°58' E 004°05'4 3.5
2015-Feb-20 12:31N 51°58' E 003°59'0 0.0
2015-Feb-20 11:31N 51°58' E 003°59'0 0.0
2015-Feb-20 10:31N 51°58' E 003°59'0 0.0
2015-Feb-20 09:31N 51°58' E 003°59'0 0.0
2015-Feb-20 08:31N 51°58' E 003°59'0 0.0
2015-Feb-20 07:31N 51°58' E 003°59'0 0.0
2015-Feb-20 06:31N 51°58' E 003°59'0 0.0
2015-Feb-20 05:31N 51°58' E 003°59'0 0.0
2015-Feb-20 04:31N 51°58' E 003°59'0 0.0
2015-Feb-20 03:32N 51°58' E 003°59'0 0.0
2015-Feb-20 02:31N 51°58' E 003°59'0 0.0
2015-Feb-20 01:31N 51°58' E 003°59'0 0.0
2015-Feb-20 00:31N 51°58' E 003°59'0 0.0
2015-Feb-19 23:31N 51°58' E 003°59'0 0.0
2015-Feb-19 22:31N 51°58' E 003°59'0 0.0
2015-Feb-19 21:31N 51°58' E 003°59'0 0.0
2015-Feb-19 20:31N 51°58' E 003°59'0 0.0
2015-Feb-19 19:31N 51°58' E 003°59'0 0.0
2015-Feb-19 18:28N 51°58' E 003°59'0 0.0
2015-Feb-19 17:31N 51°58' E 003°59'0 0.0
2015-Feb-19 16:31N 51°58' E 003°59'0 0.0
2015-Feb-19 15:31N 51°58' E 003°59'0 0.0
2015-Feb-19 14:31N 51°58' E 003°59'0 0.0
2015-Feb-19 13:31N 51°58' E 003°59'0 0.0
2015-Feb-19 12:31N 51°58' E 003°59'0 0.0
2015-Feb-19 11:31N 51°58' E 003°59'0 0.0
2015-Feb-19 10:31N 51°58' E 003°59'0 0.0
2015-Feb-19 09:31N 51°58' E 003°59'0 0.0
2015-Feb-19 08:25N 51°58' E 003°59'0 0.0
2015-Feb-19 07:31N 51°58' E 003°59'0 0.0
2015-Feb-19 06:31N 51°58' E 003°59'0 0.0
2015-Feb-19 05:28N 51°58' E 003°59'0 0.0
2015-Feb-19 04:31N 51°58' E 003°59'0 0.0
2015-Feb-19 03:31N 51°58' E 003°59'0 0.0
2015-Feb-19 02:31N 51°58' E 003°59'0 0.0
2015-Feb-19 01:31N 51°58' E 003°59'0 0.0
2015-Feb-19 00:31N 51°58' E 003°59'0 0.0
2015-Feb-18 23:31N 51°58' E 003°59'0 0.0
2015-Feb-18 22:31N 51°58' E 003°59'0 0.0
2015-Feb-18 21:31N 51°58' E 003°59'0 0.0
2015-Feb-18 20:28N 51°58' E 003°59'0 0.0
2015-Feb-18 19:28N 51°58' E 003°59'0 0.0
2015-Feb-18 18:31N 51°58' E 003°59'0 0.0
2015-Feb-18 17:31N 51°58' E 003°59'0 0.0
2015-Feb-18 16:31N 51°58' E 003°59'0 0.0
2015-Feb-18 15:31N 51°58' E 003°59'0 0.0
2015-Feb-18 14:31N 51°58' E 003°59'0 0.0
2015-Feb-18 13:31N 51°58' E 003°59'0 0.0
2015-Feb-18 12:31N 51°58' E 003°59'0 0.0
2015-Feb-18 11:31N 51°58' E 003°59'0 0.0
2015-Feb-18 10:31N 51°58' E 003°59'0 0.0
2015-Feb-18 09:31N 51°58' E 003°59'0 0.0
2015-Feb-18 08:31N 51°58' E 003°59'0 0.0
2015-Feb-18 07:31N 51°58' E 003°59'0 0.0
2015-Feb-18 06:31N 51°58' E 003°59'0 0.0
2015-Feb-18 05:31N 51°58' E 003°59'0 0.0
2015-Feb-18 04:31N 51°58' E 003°59'0 0.0
2015-Feb-18 03:31N 51°58' E 003°59'0 0.0
2015-Feb-18 02:31N 51°58' E 003°59'0 0.0
2015-Feb-18 01:31N 51°58' E 003°59'0 0.0
2015-Feb-18 00:31N 51°58' E 003°59'0 0.0
2015-Feb-17 23:31N 51°58' E 003°59'0 0.0
2015-Feb-17 22:31N 51°58' E 003°59'0 0.0
2015-Feb-17 21:31N 51°58' E 003°59'0 0.0
2015-Feb-17 20:31N 51°58' E 003°59'0 0.0
2015-Feb-17 19:31N 51°58' E 003°59'0 0.0
2015-Feb-17 17:28N 51°58' E 003°59'0 0.0
2015-Feb-17 16:28N 51°58' E 003°59'0 0.0
2015-Feb-17 15:31N 51°58' E 003°59'0 0.0
2015-Feb-17 14:31N 51°58' E 003°59'0 0.0
2015-Feb-17 13:28N 51°58' E 003°59'0 0.0
2015-Feb-17 12:16N 51°58' E 003°59'0 0.0
2015-Feb-17 11:31N 51°58' E 003°59'0 0.0
2015-Feb-17 10:16N 51°58' E 003°59'0 0.0
2015-Feb-17 09:16N 51°58' E 003°59'0 0.0
2015-Feb-17 08:31N 51°58' E 003°59'  

Dump ship's entire track history